sensor_id;sensor_type;location;lat;lon;timestamp;P1;durP1;ratioP1;P2;durP2;ratioP2
16994;SDS011;8614;48.522;9.206;2022-09-30T00:01:51;13.10;;;12.10;;
16994;SDS011;8614;48.522;9.206;2022-09-30T00:04:19;15.80;;;14.57;;
16994;SDS011;8614;48.522;9.206;2022-09-30T00:06:48;13.43;;;12.33;;
16994;SDS011;8614;48.522;9.206;2022-09-30T00:09:15;13.33;;;12.13;;
16994;SDS011;8614;48.522;9.206;2022-09-30T00:11:44;12.90;;;11.90;;
16994;SDS011;8614;48.522;9.206;2022-09-30T00:14:12;13.93;;;12.83;;
16994;SDS011;8614;48.522;9.206;2022-09-30T00:16:41;13.57;;;12.57;;
16994;SDS011;8614;48.522;9.206;2022-09-30T00:19:10;13.17;;;12.17;;
16994;SDS011;8614;48.522;9.206;2022-09-30T00:21:37;13.37;;;12.17;;
16994;SDS011;8614;48.522;9.206;2022-09-30T00:24:04;13.03;;;12.03;;
16994;SDS011;8614;48.522;9.206;2022-09-30T00:26:32;13.90;;;12.83;;
16994;SDS011;8614;48.522;9.206;2022-09-30T00:29:00;15.50;;;14.40;;
16994;SDS011;8614;48.522;9.206;2022-09-30T00:31:28;14.33;;;13.23;;
16994;SDS011;8614;48.522;9.206;2022-09-30T00:33:56;14.43;;;13.33;;
16994;SDS011;8614;48.522;9.206;2022-09-30T00:36:33;14.97;;;13.87;;
16994;SDS011;8614;48.522;9.206;2022-09-30T00:39:02;14.43;;;13.30;;
16994;SDS011;8614;48.522;9.206;2022-09-30T00:41:31;15.10;;;13.97;;
16994;SDS011;8614;48.522;9.206;2022-09-30T00:43:58;14.97;;;13.87;;
16994;SDS011;8614;48.522;9.206;2022-09-30T00:46:28;13.97;;;12.97;;
16994;SDS011;8614;48.522;9.206;2022-09-30T00:49:02;14.57;;;13.50;;
16994;SDS011;8614;48.522;9.206;2022-09-30T00:51:33;12.67;;;11.77;;
16994;SDS011;8614;48.522;9.206;2022-09-30T00:54:04;14.77;;;13.43;;
16994;SDS011;8614;48.522;9.206;2022-09-30T00:56:36;13.93;;;12.73;;
16994;SDS011;8614;48.522;9.206;2022-09-30T00:59:06;15.03;;;13.80;;
16994;SDS011;8614;48.522;9.206;2022-09-30T01:01:35;14.63;;;13.53;;
16994;SDS011;8614;48.522;9.206;2022-09-30T01:04:05;14.03;;;13.03;;
16994;SDS011;8614;48.522;9.206;2022-09-30T01:06:38;13.40;;;12.50;;
16994;SDS011;8614;48.522;9.206;2022-09-30T01:09:06;13.13;;;12.23;;
16994;SDS011;8614;48.522;9.206;2022-09-30T01:11:33;13.10;;;12.10;;
16994;SDS011;8614;48.522;9.206;2022-09-30T01:14:00;13.10;;;12.20;;
16994;SDS011;8614;48.522;9.206;2022-09-30T01:16:43;12.77;;;11.87;;
16994;SDS011;8614;48.522;9.206;2022-09-30T01:19:25;14.00;;;12.90;;
16994;SDS011;8614;48.522;9.206;2022-09-30T01:25:05;13.87;;;12.87;;
16994;SDS011;8614;48.522;9.206;2022-09-30T01:31:05;13.77;;;12.77;;
16994;SDS011;8614;48.522;9.206;2022-09-30T01:33:41;13.97;;;12.93;;
16994;SDS011;8614;48.522;9.206;2022-09-30T01:36:27;14.60;;;13.30;;
16994;SDS011;8614;48.522;9.206;2022-09-30T01:39:03;13.97;;;12.83;;
16994;SDS011;8614;48.522;9.206;2022-09-30T01:41:38;13.70;;;12.70;;
16994;SDS011;8614;48.522;9.206;2022-09-30T01:44:12;14.53;;;12.63;;
16994;SDS011;8614;48.522;9.206;2022-09-30T01:46:47;14.03;;;13.03;;
16994;SDS011;8614;48.522;9.206;2022-09-30T01:49:21;14.13;;;13.03;;
16994;SDS011;8614;48.522;9.206;2022-09-30T01:51:56;13.10;;;12.20;;
16994;SDS011;8614;48.522;9.206;2022-09-30T01:54:30;14.27;;;13.00;;
16994;SDS011;8614;48.522;9.206;2022-09-30T01:57:02;13.63;;;12.53;;
16994;SDS011;8614;48.522;9.206;2022-09-30T01:59:35;13.73;;;12.63;;
16994;SDS011;8614;48.522;9.206;2022-09-30T02:02:08;13.67;;;12.57;;
16994;SDS011;8614;48.522;9.206;2022-09-30T02:04:43;13.13;;;12.23;;
16994;SDS011;8614;48.522;9.206;2022-09-30T02:07:14;13.70;;;12.63;;
16994;SDS011;8614;48.522;9.206;2022-09-30T02:09:47;14.60;;;13.30;;
16994;SDS011;8614;48.522;9.206;2022-09-30T02:12:20;14.30;;;13.27;;
16994;SDS011;8614;48.522;9.206;2022-09-30T02:14:54;14.80;;;13.70;;
16994;SDS011;8614;48.522;9.206;2022-09-30T02:17:26;15.17;;;13.83;;
16994;SDS011;8614;48.522;9.206;2022-09-30T02:19:59;14.57;;;13.30;;
16994;SDS011;8614;48.522;9.206;2022-09-30T02:22:32;14.73;;;13.63;;
16994;SDS011;8614;48.522;9.206;2022-09-30T02:25:09;14.03;;;13.03;;
16994;SDS011;8614;48.522;9.206;2022-09-30T02:27:44;14.10;;;13.10;;
16994;SDS011;8614;48.522;9.206;2022-09-30T02:30:15;13.67;;;12.77;;
16994;SDS011;8614;48.522;9.206;2022-09-30T02:32:45;13.57;;;12.47;;
16994;SDS011;8614;48.522;9.206;2022-09-30T02:35:16;13.17;;;12.17;;
16994;SDS011;8614;48.522;9.206;2022-09-30T02:37:49;13.20;;;12.30;;
16994;SDS011;8614;48.522;9.206;2022-09-30T02:40:19;13.57;;;12.57;;
16994;SDS011;8614;48.522;9.206;2022-09-30T02:42:50;12.60;;;11.70;;
16994;SDS011;8614;48.522;9.206;2022-09-30T02:45:18;15.07;;;13.90;;
16994;SDS011;8614;48.522;9.206;2022-09-30T02:47:56;13.73;;;12.60;;
16994;SDS011;8614;48.522;9.206;2022-09-30T02:50:30;13.70;;;12.73;;
16994;SDS011;8614;48.522;9.206;2022-09-30T02:53:05;13.30;;;12.40;;
16994;SDS011;8614;48.522;9.206;2022-09-30T02:55:44;13.00;;;12.10;;
16994;SDS011;8614;48.522;9.206;2022-09-30T02:58:20;13.43;;;12.43;;
16994;SDS011;8614;48.522;9.206;2022-09-30T03:00:50;13.30;;;12.40;;
16994;SDS011;8614;48.522;9.206;2022-09-30T03:03:20;12.57;;;11.77;;
16994;SDS011;8614;48.522;9.206;2022-09-30T03:05:50;13.33;;;12.43;;
16994;SDS011;8614;48.522;9.206;2022-09-30T03:08:18;14.13;;;13.13;;
16994;SDS011;8614;48.522;9.206;2022-09-30T03:10:46;15.00;;;13.70;;
16994;SDS011;8614;48.522;9.206;2022-09-30T03:13:26;13.70;;;12.60;;
16994;SDS011;8614;48.522;9.206;2022-09-30T03:16:18;14.07;;;13.07;;
16994;SDS011;8614;48.522;9.206;2022-09-30T03:18:59;14.20;;;13.20;;
16994;SDS011;8614;48.522;9.206;2022-09-30T03:21:46;15.00;;;13.80;;
16994;SDS011;8614;48.522;9.206;2022-09-30T03:24:31;13.93;;;12.97;;
16994;SDS011;8614;48.522;9.206;2022-09-30T03:27:17;15.10;;;14.07;;
16994;SDS011;8614;48.522;9.206;2022-09-30T03:29:55;15.33;;;14.23;;
16994;SDS011;8614;48.522;9.206;2022-09-30T03:32:30;13.80;;;12.83;;
16994;SDS011;8614;48.522;9.206;2022-09-30T03:35:12;13.60;;;12.70;;
16994;SDS011;8614;48.522;9.206;2022-09-30T03:37:48;14.90;;;13.80;;
16994;SDS011;8614;48.522;9.206;2022-09-30T03:40:22;15.00;;;13.83;;
16994;SDS011;8614;48.522;9.206;2022-09-30T03:42:56;13.73;;;12.83;;
16994;SDS011;8614;48.522;9.206;2022-09-30T03:45:29;14.33;;;13.33;;
16994;SDS011;8614;48.522;9.206;2022-09-30T03:48:02;14.70;;;13.70;;
16994;SDS011;8614;48.522;9.206;2022-09-30T03:50:32;14.70;;;13.70;;
16994;SDS011;8614;48.522;9.206;2022-09-30T03:53:02;15.00;;;13.90;;
16994;SDS011;8614;48.522;9.206;2022-09-30T03:55:34;15.13;;;14.13;;
16994;SDS011;8614;48.522;9.206;2022-09-30T03:58:12;15.03;;;13.93;;
16994;SDS011;8614;48.522;9.206;2022-09-30T04:00:40;15.13;;;14.13;;
16994;SDS011;8614;48.522;9.206;2022-09-30T04:03:13;15.73;;;14.53;;
16994;SDS011;8614;48.522;9.206;2022-09-30T04:05:41;15.30;;;14.20;;
16994;SDS011;8614;48.522;9.206;2022-09-30T04:08:08;15.77;;;14.60;;
16994;SDS011;8614;48.522;9.206;2022-09-30T04:10:36;15.23;;;14.17;;
16994;SDS011;8614;48.522;9.206;2022-09-30T04:13:05;15.37;;;14.27;;
16994;SDS011;8614;48.522;9.206;2022-09-30T04:15:32;15.70;;;14.53;;
16994;SDS011;8614;48.522;9.206;2022-09-30T04:17:58;15.20;;;14.20;;
16994;SDS011;8614;48.522;9.206;2022-09-30T04:20:26;15.27;;;14.10;;
16994;SDS011;8614;48.522;9.206;2022-09-30T04:22:56;14.57;;;13.57;;
16994;SDS011;8614;48.522;9.206;2022-09-30T04:25:23;14.70;;;13.70;;
16994;SDS011;8614;48.522;9.206;2022-09-30T04:27:50;15.27;;;14.23;;
16994;SDS011;8614;48.522;9.206;2022-09-30T04:30:18;15.77;;;14.47;;
16994;SDS011;8614;48.522;9.206;2022-09-30T04:32:44;15.13;;;13.90;;
16994;SDS011;8614;48.522;9.206;2022-09-30T04:35:11;15.30;;;14.17;;
16994;SDS011;8614;48.522;9.206;2022-09-30T04:37:42;14.20;;;13.30;;
16994;SDS011;8614;48.522;9.206;2022-09-30T04:40:11;14.80;;;13.70;;
16994;SDS011;8614;48.522;9.206;2022-09-30T04:42:38;15.03;;;14.03;;
16994;SDS011;8614;48.522;9.206;2022-09-30T04:45:07;14.67;;;13.57;;
16994;SDS011;8614;48.522;9.206;2022-09-30T04:47:37;15.80;;;14.63;;
16994;SDS011;8614;48.522;9.206;2022-09-30T04:50:04;15.20;;;14.13;;
16994;SDS011;8614;48.522;9.206;2022-09-30T04:52:32;15.77;;;14.63;;
16994;SDS011;8614;48.522;9.206;2022-09-30T04:54:59;16.77;;;15.47;;
16994;SDS011;8614;48.522;9.206;2022-09-30T04:57:27;15.50;;;14.40;;
16994;SDS011;8614;48.522;9.206;2022-09-30T04:59:54;15.00;;;13.90;;
16994;SDS011;8614;48.522;9.206;2022-09-30T05:02:21;16.87;;;15.60;;
16994;SDS011;8614;48.522;9.206;2022-09-30T05:04:48;15.83;;;14.70;;
16994;SDS011;8614;48.522;9.206;2022-09-30T05:07:15;14.80;;;13.80;;
16994;SDS011;8614;48.522;9.206;2022-09-30T05:09:42;16.13;;;14.80;;
16994;SDS011;8614;48.522;9.206;2022-09-30T05:12:09;15.97;;;14.80;;
16994;SDS011;8614;48.522;9.206;2022-09-30T05:14:37;16.10;;;14.90;;
16994;SDS011;8614;48.522;9.206;2022-09-30T05:17:04;16.10;;;14.90;;
16994;SDS011;8614;48.522;9.206;2022-09-30T05:19:31;15.93;;;14.83;;
16994;SDS011;8614;48.522;9.206;2022-09-30T05:21:58;16.20;;;14.67;;
16994;SDS011;8614;48.522;9.206;2022-09-30T05:24:25;15.27;;;14.17;;
16994;SDS011;8614;48.522;9.206;2022-09-30T05:26:54;15.33;;;14.23;;
16994;SDS011;8614;48.522;9.206;2022-09-30T05:29:21;15.93;;;14.70;;
16994;SDS011;8614;48.522;9.206;2022-09-30T05:31:49;15.47;;;14.27;;
16994;SDS011;8614;48.522;9.206;2022-09-30T05:34:16;15.30;;;14.30;;
16994;SDS011;8614;48.522;9.206;2022-09-30T05:36:42;15.13;;;14.00;;
16994;SDS011;8614;48.522;9.206;2022-09-30T05:39:10;14.80;;;13.80;;
16994;SDS011;8614;48.522;9.206;2022-09-30T05:41:37;14.77;;;13.73;;
16994;SDS011;8614;48.522;9.206;2022-09-30T05:44:04;14.97;;;13.87;;
16994;SDS011;8614;48.522;9.206;2022-09-30T05:46:32;15.67;;;14.53;;
16994;SDS011;8614;48.522;9.206;2022-09-30T05:49:01;14.83;;;13.77;;
16994;SDS011;8614;48.522;9.206;2022-09-30T05:51:28;14.63;;;13.60;;
16994;SDS011;8614;48.522;9.206;2022-09-30T05:53:55;14.20;;;13.30;;
16994;SDS011;8614;48.522;9.206;2022-09-30T05:56:22;14.43;;;13.43;;
16994;SDS011;8614;48.522;9.206;2022-09-30T05:58:48;14.70;;;13.50;;
16994;SDS011;8614;48.522;9.206;2022-09-30T06:01:15;14.70;;;13.70;;
16994;SDS011;8614;48.522;9.206;2022-09-30T06:03:43;14.60;;;13.60;;
16994;SDS011;8614;48.522;9.206;2022-09-30T06:06:13;14.57;;;13.57;;
16994;SDS011;8614;48.522;9.206;2022-09-30T06:08:40;14.83;;;13.83;;
16994;SDS011;8614;48.522;9.206;2022-09-30T06:11:08;14.30;;;13.40;;
16994;SDS011;8614;48.522;9.206;2022-09-30T06:13:37;13.73;;;12.83;;
16994;SDS011;8614;48.522;9.206;2022-09-30T06:16:04;14.47;;;13.30;;
16994;SDS011;8614;48.522;9.206;2022-09-30T06:18:31;15.30;;;14.10;;
16994;SDS011;8614;48.522;9.206;2022-09-30T06:20:59;14.70;;;13.60;;
16994;SDS011;8614;48.522;9.206;2022-09-30T06:23:30;13.60;;;12.60;;
16994;SDS011;8614;48.522;9.206;2022-09-30T06:25:59;13.90;;;13.00;;
16994;SDS011;8614;48.522;9.206;2022-09-30T06:28:26;14.37;;;13.37;;
16994;SDS011;8614;48.522;9.206;2022-09-30T06:30:53;14.20;;;13.10;;
16994;SDS011;8614;48.522;9.206;2022-09-30T06:33:21;13.77;;;12.87;;
16994;SDS011;8614;48.522;9.206;2022-09-30T06:35:49;14.47;;;13.47;;
16994;SDS011;8614;48.522;9.206;2022-09-30T06:38:16;14.20;;;13.20;;
16994;SDS011;8614;48.522;9.206;2022-09-30T06:40:44;13.70;;;12.70;;
16994;SDS011;8614;48.522;9.206;2022-09-30T06:43:14;13.07;;;12.07;;
16994;SDS011;8614;48.522;9.206;2022-09-30T06:45:41;13.43;;;12.53;;
16994;SDS011;8614;48.522;9.206;2022-09-30T06:48:08;14.17;;;13.10;;
16994;SDS011;8614;48.522;9.206;2022-09-30T06:50:35;13.53;;;12.63;;
16994;SDS011;8614;48.522;9.206;2022-09-30T06:53:03;13.80;;;12.80;;
16994;SDS011;8614;48.522;9.206;2022-09-30T06:55:32;14.27;;;12.87;;
16994;SDS011;8614;48.522;9.206;2022-09-30T06:58:02;14.30;;;13.27;;
16994;SDS011;8614;48.522;9.206;2022-09-30T07:00:28;13.40;;;12.50;;
16994;SDS011;8614;48.522;9.206;2022-09-30T07:02:55;13.20;;;12.23;;
16994;SDS011;8614;48.522;9.206;2022-09-30T07:05:22;13.87;;;12.97;;
16994;SDS011;8614;48.522;9.206;2022-09-30T07:07:50;12.57;;;11.60;;
16994;SDS011;8614;48.522;9.206;2022-09-30T07:10:18;13.13;;;12.23;;
16994;SDS011;8614;48.522;9.206;2022-09-30T07:12:47;13.80;;;12.80;;
16994;SDS011;8614;48.522;9.206;2022-09-30T07:15:16;13.57;;;12.67;;
16994;SDS011;8614;48.522;9.206;2022-09-30T07:17:49;13.43;;;12.57;;
16994;SDS011;8614;48.522;9.206;2022-09-30T07:20:16;13.73;;;12.83;;
16994;SDS011;8614;48.522;9.206;2022-09-30T07:22:43;14.87;;;13.70;;
16994;SDS011;8614;48.522;9.206;2022-09-30T07:25:10;14.43;;;13.27;;
16994;SDS011;8614;48.522;9.206;2022-09-30T07:27:38;13.87;;;12.87;;
16994;SDS011;8614;48.522;9.206;2022-09-30T07:30:06;12.50;;;11.67;;
16994;SDS011;8614;48.522;9.206;2022-09-30T07:32:35;12.83;;;12.03;;
16994;SDS011;8614;48.522;9.206;2022-09-30T07:35:02;13.20;;;12.40;;
16994;SDS011;8614;48.522;9.206;2022-09-30T07:37:30;12.63;;;11.83;;
16994;SDS011;8614;48.522;9.206;2022-09-30T07:40:00;14.00;;;12.80;;
16994;SDS011;8614;48.522;9.206;2022-09-30T07:42:27;13.80;;;12.80;;
16994;SDS011;8614;48.522;9.206;2022-09-30T07:44:55;12.10;;;11.30;;
16994;SDS011;8614;48.522;9.206;2022-09-30T07:47:22;11.37;;;10.47;;
16994;SDS011;8614;48.522;9.206;2022-09-30T07:49:50;11.57;;;10.67;;
16994;SDS011;8614;48.522;9.206;2022-09-30T07:52:17;13.43;;;12.53;;
16994;SDS011;8614;48.522;9.206;2022-09-30T07:54:44;13.00;;;12.00;;
16994;SDS011;8614;48.522;9.206;2022-09-30T07:57:11;11.50;;;10.70;;
16994;SDS011;8614;48.522;9.206;2022-09-30T07:59:38;10.87;;;9.87;;
16994;SDS011;8614;48.522;9.206;2022-09-30T08:02:09;11.37;;;10.57;;
16994;SDS011;8614;48.522;9.206;2022-09-30T08:04:38;12.77;;;11.67;;
16994;SDS011;8614;48.522;9.206;2022-09-30T08:07:07;11.80;;;10.80;;
16994;SDS011;8614;48.522;9.206;2022-09-30T08:09:34;10.67;;;9.97;;
16994;SDS011;8614;48.522;9.206;2022-09-30T08:12:01;8.17;;;7.30;;
16994;SDS011;8614;48.522;9.206;2022-09-30T08:14:29;7.60;;;6.93;;
16994;SDS011;8614;48.522;9.206;2022-09-30T08:16:56;7.57;;;6.93;;
16994;SDS011;8614;48.522;9.206;2022-09-30T08:19:24;7.00;;;6.40;;
16994;SDS011;8614;48.522;9.206;2022-09-30T08:21:53;7.60;;;6.90;;
16994;SDS011;8614;48.522;9.206;2022-09-30T08:24:22;10.70;;;7.37;;
16994;SDS011;8614;48.522;9.206;2022-09-30T08:26:49;7.60;;;6.27;;
16994;SDS011;8614;48.522;9.206;2022-09-30T08:29:17;8.70;;;7.90;;
16994;SDS011;8614;48.522;9.206;2022-09-30T08:31:44;7.40;;;6.70;;
16994;SDS011;8614;48.522;9.206;2022-09-30T08:34:10;7.73;;;6.90;;
16994;SDS011;8614;48.522;9.206;2022-09-30T08:36:37;7.63;;;6.83;;
16994;SDS011;8614;48.522;9.206;2022-09-30T08:39:04;7.83;;;7.13;;
16994;SDS011;8614;48.522;9.206;2022-09-30T08:41:36;7.93;;;7.17;;
16994;SDS011;8614;48.522;9.206;2022-09-30T08:44:24;7.23;;;6.53;;
16994;SDS011;8614;48.522;9.206;2022-09-30T08:47:07;7.90;;;7.20;;
16994;SDS011;8614;48.522;9.206;2022-09-30T08:49:48;8.53;;;7.80;;
16994;SDS011;8614;48.522;9.206;2022-09-30T08:52:23;7.50;;;6.80;;
16994;SDS011;8614;48.522;9.206;2022-09-30T08:54:52;7.87;;;7.00;;
16994;SDS011;8614;48.522;9.206;2022-09-30T08:57:23;8.43;;;7.73;;
16994;SDS011;8614;48.522;9.206;2022-09-30T09:00:03;8.93;;;8.10;;
16994;SDS011;8614;48.522;9.206;2022-09-30T09:02:35;9.57;;;8.87;;
16994;SDS011;8614;48.522;9.206;2022-09-30T09:05:10;9.00;;;8.20;;
16994;SDS011;8614;48.522;9.206;2022-09-30T09:07:47;8.70;;;7.90;;
16994;SDS011;8614;48.522;9.206;2022-09-30T09:10:22;11.20;;;8.60;;
16994;SDS011;8614;48.522;9.206;2022-09-30T09:12:57;14.70;;;13.50;;
16994;SDS011;8614;48.522;9.206;2022-09-30T09:15:37;9.33;;;7.23;;
16994;SDS011;8614;48.522;9.206;2022-09-30T09:18:23;8.97;;;8.07;;
16994;SDS011;8614;48.522;9.206;2022-09-30T09:21:01;7.63;;;6.23;;
16994;SDS011;8614;48.522;9.206;2022-09-30T09:23:39;8.60;;;6.27;;
16994;SDS011;8614;48.522;9.206;2022-09-30T09:26:08;7.47;;;6.07;;
16994;SDS011;8614;48.522;9.206;2022-09-30T09:28:39;8.00;;;6.47;;
16994;SDS011;8614;48.522;9.206;2022-09-30T09:31:11;7.70;;;6.97;;
16994;SDS011;8614;48.522;9.206;2022-09-30T09:33:42;9.40;;;8.43;;
16994;SDS011;8614;48.522;9.206;2022-09-30T09:36:13;10.83;;;9.73;;
16994;SDS011;8614;48.522;9.206;2022-09-30T09:38:54;8.27;;;7.47;;
16994;SDS011;8614;48.522;9.206;2022-09-30T09:41:41;7.80;;;7.00;;
16994;SDS011;8614;48.522;9.206;2022-09-30T09:44:16;6.83;;;5.90;;
16994;SDS011;8614;48.522;9.206;2022-09-30T09:46:49;8.40;;;6.90;;
16994;SDS011;8614;48.522;9.206;2022-09-30T09:49:27;8.27;;;6.67;;
16994;SDS011;8614;48.522;9.206;2022-09-30T09:52:00;5.90;;;5.30;;
16994;SDS011;8614;48.522;9.206;2022-09-30T09:54:41;6.13;;;5.43;;
16994;SDS011;8614;48.522;9.206;2022-09-30T09:57:10;5.67;;;4.80;;
16994;SDS011;8614;48.522;9.206;2022-09-30T09:59:52;5.80;;;5.20;;
16994;SDS011;8614;48.522;9.206;2022-09-30T10:02:22;6.57;;;5.13;;
16994;SDS011;8614;48.522;9.206;2022-09-30T10:04:52;6.13;;;5.30;;
16994;SDS011;8614;48.522;9.206;2022-09-30T10:07:25;6.47;;;5.83;;
16994;SDS011;8614;48.522;9.206;2022-09-30T10:10:05;7.33;;;6.17;;
16994;SDS011;8614;48.522;9.206;2022-09-30T10:12:34;9.13;;;7.80;;
16994;SDS011;8614;48.522;9.206;2022-09-30T10:15:12;8.77;;;7.97;;
16994;SDS011;8614;48.522;9.206;2022-09-30T10:17:49;9.90;;;9.07;;
16994;SDS011;8614;48.522;9.206;2022-09-30T10:20:20;9.80;;;9.00;;
16994;SDS011;8614;48.522;9.206;2022-09-30T10:22:58;10.00;;;9.20;;
16994;SDS011;8614;48.522;9.206;2022-09-30T10:25:27;9.23;;;8.43;;
16994;SDS011;8614;48.522;9.206;2022-09-30T10:27:56;5.80;;;5.30;;
16994;SDS011;8614;48.522;9.206;2022-09-30T10:30:44;5.97;;;5.47;;
16994;SDS011;8614;48.522;9.206;2022-09-30T10:33:19;6.27;;;5.77;;
16994;SDS011;8614;48.522;9.206;2022-09-30T10:35:54;6.40;;;5.80;;
16994;SDS011;8614;48.522;9.206;2022-09-30T10:38:22;6.63;;;6.10;;
16994;SDS011;8614;48.522;9.206;2022-09-30T10:40:53;6.33;;;5.83;;
16994;SDS011;8614;48.522;9.206;2022-09-30T10:43:23;7.47;;;6.20;;
16994;SDS011;8614;48.522;9.206;2022-09-30T10:45:53;6.93;;;6.27;;
16994;SDS011;8614;48.522;9.206;2022-09-30T10:48:24;7.37;;;6.20;;
16994;SDS011;8614;48.522;9.206;2022-09-30T10:50:55;7.97;;;7.20;;
16994;SDS011;8614;48.522;9.206;2022-09-30T10:53:23;6.93;;;6.23;;
16994;SDS011;8614;48.522;9.206;2022-09-30T10:55:54;7.03;;;6.33;;
16994;SDS011;8614;48.522;9.206;2022-09-30T10:58:23;8.17;;;7.37;;
16994;SDS011;8614;48.522;9.206;2022-09-30T11:00:56;7.23;;;6.53;;
16994;SDS011;8614;48.522;9.206;2022-09-30T11:03:30;8.53;;;7.73;;
16994;SDS011;8614;48.522;9.206;2022-09-30T11:06:02;10.53;;;9.63;;
16994;SDS011;8614;48.522;9.206;2022-09-30T11:08:32;11.80;;;10.90;;
16994;SDS011;8614;48.522;9.206;2022-09-30T11:11:06;11.63;;;10.73;;
16994;SDS011;8614;48.522;9.206;2022-09-30T11:13:39;11.50;;;10.70;;
16994;SDS011;8614;48.522;9.206;2022-09-30T11:16:12;10.73;;;9.93;;
16994;SDS011;8614;48.522;9.206;2022-09-30T11:18:46;11.23;;;10.33;;
16994;SDS011;8614;48.522;9.206;2022-09-30T11:21:19;10.73;;;9.83;;
16994;SDS011;8614;48.522;9.206;2022-09-30T11:23:51;9.53;;;8.90;;
16994;SDS011;8614;48.522;9.206;2022-09-30T11:26:25;9.90;;;9.20;;
16994;SDS011;8614;48.522;9.206;2022-09-30T11:29:14;10.30;;;9.50;;
16994;SDS011;8614;48.522;9.206;2022-09-30T11:32:02;9.40;;;8.80;;
16994;SDS011;8614;48.522;9.206;2022-09-30T11:34:41;9.37;;;8.67;;
16994;SDS011;8614;48.522;9.206;2022-09-30T11:37:21;9.53;;;8.57;;
16994;SDS011;8614;48.522;9.206;2022-09-30T11:40:02;8.97;;;8.30;;
16994;SDS011;8614;48.522;9.206;2022-09-30T11:43:00;9.03;;;8.37;;
16994;SDS011;8614;48.522;9.206;2022-09-30T11:45:36;8.30;;;7.80;;
16994;SDS011;8614;48.522;9.206;2022-09-30T11:48:20;8.27;;;7.67;;
16994;SDS011;8614;48.522;9.206;2022-09-30T11:51:04;8.30;;;7.60;;
16994;SDS011;8614;48.522;9.206;2022-09-30T11:53:42;8.37;;;7.77;;
16994;SDS011;8614;48.522;9.206;2022-09-30T11:56:23;7.67;;;7.03;;
16994;SDS011;8614;48.522;9.206;2022-09-30T11:58:58;8.35;;;7.65;;
16994;SDS011;8614;48.522;9.206;2022-09-30T12:01:28;7.70;;;7.10;;
16994;SDS011;8614;48.522;9.206;2022-09-30T12:04:02;7.73;;;7.20;;
16994;SDS011;8614;48.522;9.206;2022-09-30T12:06:32;7.10;;;6.60;;
16994;SDS011;8614;48.522;9.206;2022-09-30T12:09:06;7.90;;;7.10;;
16994;SDS011;8614;48.522;9.206;2022-09-30T12:11:41;7.53;;;7.03;;
16994;SDS011;8614;48.522;9.206;2022-09-30T12:14:16;7.70;;;7.10;;
16994;SDS011;8614;48.522;9.206;2022-09-30T12:16:46;7.57;;;7.07;;
16994;SDS011;8614;48.522;9.206;2022-09-30T12:19:18;7.50;;;6.90;;
16994;SDS011;8614;48.522;9.206;2022-09-30T12:21:50;6.93;;;6.43;;
16994;SDS011;8614;48.522;9.206;2022-09-30T12:24:23;12.37;;;6.90;;
16994;SDS011;8614;48.522;9.206;2022-09-30T12:26:55;6.83;;;6.33;;
16994;SDS011;8614;48.522;9.206;2022-09-30T12:29:23;7.57;;;6.97;;
16994;SDS011;8614;48.522;9.206;2022-09-30T12:32:27;7.27;;;6.67;;
16994;SDS011;8614;48.522;9.206;2022-09-30T12:35:23;6.67;;;6.17;;
16994;SDS011;8614;48.522;9.206;2022-09-30T12:38:07;7.77;;;7.20;;
16994;SDS011;8614;48.522;9.206;2022-09-30T12:40:54;8.27;;;7.67;;
16994;SDS011;8614;48.522;9.206;2022-09-30T12:46:40;9.07;;;8.47;;
16994;SDS011;8614;48.522;9.206;2022-09-30T12:49:18;8.97;;;8.37;;
16994;SDS011;8614;48.522;9.206;2022-09-30T12:51:52;8.60;;;8.10;;
16994;SDS011;8614;48.522;9.206;2022-09-30T12:54:23;9.07;;;8.37;;
16994;SDS011;8614;48.522;9.206;2022-09-30T12:56:52;8.40;;;7.80;;
16994;SDS011;8614;48.522;9.206;2022-09-30T12:59:23;8.97;;;8.27;;
16994;SDS011;8614;48.522;9.206;2022-09-30T13:01:52;8.83;;;8.20;;
16994;SDS011;8614;48.522;9.206;2022-09-30T13:04:29;7.67;;;6.97;;
16994;SDS011;8614;48.522;9.206;2022-09-30T13:07:15;7.70;;;7.00;;
16994;SDS011;8614;48.522;9.206;2022-09-30T13:12:46;6.70;;;6.20;;
16994;SDS011;8614;48.522;9.206;2022-09-30T13:15:39;6.73;;;6.23;;
16994;SDS011;8614;48.522;9.206;2022-09-30T13:21:23;6.20;;;5.80;;
16994;SDS011;8614;48.522;9.206;2022-09-30T13:23:52;6.47;;;6.07;;
16994;SDS011;8614;48.522;9.206;2022-09-30T13:26:33;6.40;;;6.00;;
16994;SDS011;8614;48.522;9.206;2022-09-30T13:32:07;6.77;;;6.17;;
16994;SDS011;8614;48.522;9.206;2022-09-30T13:34:54;7.47;;;6.97;;
16994;SDS011;8614;48.522;9.206;2022-09-30T13:40:14;6.27;;;5.80;;
16994;SDS011;8614;48.522;9.206;2022-09-30T13:42:52;6.60;;;6.10;;
16994;SDS011;8614;48.522;9.206;2022-09-30T13:45:24;7.30;;;6.70;;
16994;SDS011;8614;48.522;9.206;2022-09-30T13:48:01;7.53;;;7.03;;
16994;SDS011;8614;48.522;9.206;2022-09-30T13:50:36;8.87;;;8.20;;
16994;SDS011;8614;48.522;9.206;2022-09-30T13:53:12;8.70;;;8.13;;
16994;SDS011;8614;48.522;9.206;2022-09-30T13:55:49;9.00;;;8.50;;
16994;SDS011;8614;48.522;9.206;2022-09-30T13:58:33;8.87;;;8.27;;
16994;SDS011;8614;48.522;9.206;2022-09-30T14:01:12;8.70;;;8.20;;
16994;SDS011;8614;48.522;9.206;2022-09-30T14:03:56;8.50;;;8.00;;
16994;SDS011;8614;48.522;9.206;2022-09-30T14:06:40;8.13;;;7.63;;
16994;SDS011;8614;48.522;9.206;2022-09-30T14:09:18;8.90;;;8.33;;
16994;SDS011;8614;48.522;9.206;2022-09-30T14:12:02;8.90;;;8.30;;
16994;SDS011;8614;48.522;9.206;2022-09-30T14:17:36;7.60;;;7.00;;
16994;SDS011;8614;48.522;9.206;2022-09-30T14:20:25;8.97;;;8.27;;
16994;SDS011;8614;48.522;9.206;2022-09-30T14:23:02;7.60;;;7.17;;
16994;SDS011;8614;48.522;9.206;2022-09-30T14:25:37;7.90;;;7.40;;
16994;SDS011;8614;48.522;9.206;2022-09-30T14:28:11;7.73;;;7.10;;
16994;SDS011;8614;48.522;9.206;2022-09-30T14:30:43;7.50;;;7.10;;
16994;SDS011;8614;48.522;9.206;2022-09-30T14:33:30;7.63;;;7.13;;
16994;SDS011;8614;48.522;9.206;2022-09-30T14:35:59;7.63;;;7.20;;
16994;SDS011;8614;48.522;9.206;2022-09-30T14:38:27;7.70;;;7.30;;
16994;SDS011;8614;48.522;9.206;2022-09-30T14:40:59;7.60;;;7.10;;
16994;SDS011;8614;48.522;9.206;2022-09-30T14:43:34;8.00;;;7.50;;
16994;SDS011;8614;48.522;9.206;2022-09-30T14:46:06;8.10;;;7.60;;
16994;SDS011;8614;48.522;9.206;2022-09-30T14:48:50;8.07;;;7.40;;
16994;SDS011;8614;48.522;9.206;2022-09-30T14:51:19;7.90;;;7.40;;
16994;SDS011;8614;48.522;9.206;2022-09-30T14:53:51;7.03;;;6.63;;
16994;SDS011;8614;48.522;9.206;2022-09-30T14:56:20;8.03;;;7.37;;
16994;SDS011;8614;48.522;9.206;2022-09-30T14:58:49;7.80;;;7.30;;
16994;SDS011;8614;48.522;9.206;2022-09-30T15:01:17;7.50;;;7.00;;
16994;SDS011;8614;48.522;9.206;2022-09-30T15:03:47;8.10;;;7.50;;
16994;SDS011;8614;48.522;9.206;2022-09-30T15:06:20;7.47;;;7.07;;
16994;SDS011;8614;48.522;9.206;2022-09-30T15:08:49;6.27;;;5.87;;
16994;SDS011;8614;48.522;9.206;2022-09-30T15:11:17;6.07;;;5.70;;
16994;SDS011;8614;48.522;9.206;2022-09-30T15:13:46;8.73;;;8.13;;
16994;SDS011;8614;48.522;9.206;2022-09-30T15:16:22;8.30;;;7.70;;
16994;SDS011;8614;48.522;9.206;2022-09-30T15:18:50;8.07;;;7.57;;
16994;SDS011;8614;48.522;9.206;2022-09-30T15:21:18;7.73;;;7.33;;
16994;SDS011;8614;48.522;9.206;2022-09-30T15:23:47;9.30;;;8.67;;
16994;SDS011;8614;48.522;9.206;2022-09-30T15:26:17;8.27;;;7.77;;
16994;SDS011;8614;48.522;9.206;2022-09-30T15:28:46;7.30;;;6.90;;
16994;SDS011;8614;48.522;9.206;2022-09-30T15:31:17;6.90;;;6.50;;
16994;SDS011;8614;48.522;9.206;2022-09-30T15:33:52;7.07;;;6.57;;
16994;SDS011;8614;48.522;9.206;2022-09-30T15:36:27;6.50;;;6.10;;
16994;SDS011;8614;48.522;9.206;2022-09-30T15:38:54;6.90;;;6.50;;
16994;SDS011;8614;48.522;9.206;2022-09-30T15:41:21;7.57;;;7.07;;